Time;durP1;ratioP1;P1;durP2;ratioP2;P2;SDS_P1;SDS_P2;PMS_P1;PMS_P2;Temp;Humidity;BMP_temperature;BMP_pressure;BME280_temperature;BME280_humidity;BME280_pressure;Samples;Min_cycle;Max_cycle;Signal;HPM_P1;HPM_P2
2022/05/27 00:01:04;;;;;;;3.30;2.43;;;;;;;;;;5072831;28;20411;-77
2022/05/27 00:03:30;;;;;;;3.80;2.90;;;;;;;;;;5072457;28;20774;-75
2022/05/27 00:05:56;;;;;;;6.70;2.97;;;;;;;;;;5072680;28;20394;-76
2022/05/27 00:08:23;;;;;;;3.40;3.10;;;;;;;;;;5071602;28;20446;-74
2022/05/27 00:10:49;;;;;;;3.60;2.90;;;;;;;;;;5072715;28;20437;-76
2022/05/27 00:13:15;;;;;;;4.23;3.83;;;;;;;;;;5072278;28;20429;-75
2022/05/27 00:15:42;;;;;;;5.30;3.37;;;;;;;;;;5072561;28;20435;-75
2022/05/27 00:18:08;;;;;;;4.43;3.70;;;;;;;;;;5072888;28;20445;-76
2022/05/27 00:20:35;;;;;;;5.30;3.50;;;;;;;;;;5072792;28;20386;-75
2022/05/27 00:23:01;;;;;;;7.80;3.97;;;;;;;;;;5072351;28;20864;-76
2022/05/27 00:25:27;;;;;;;5.47;3.63;;;;;;;;;;5072461;28;20450;-76
2022/05/27 00:27:53;;;;;;;5.20;4.33;;;;;;;;;;5072776;28;20399;-76
2022/05/27 00:30:19;;;;;;;5.33;4.07;;;;;;;;;;5072660;28;20421;-75
2022/05/27 00:32:45;;;;;;;6.80;4.00;;;;;;;;;;5072301;28;20497;-76
2022/05/27 00:35:11;;;;;;;6.07;4.00;;;;;;;;;;5072078;28;20525;-77
2022/05/27 00:37:37;;;;;;;9.70;4.03;;;;;;;;;;5072380;28;20510;-76
2022/05/27 00:40:04;;;;;;;10.70;4.20;;;;;;;;;;5071161;28;20901;-77
2022/05/27 00:42:30;;;;;;;6.73;4.00;;;;;;;;;;5072322;28;20465;-75
2022/05/27 00:44:56;;;;;;;8.10;4.87;;;;;;;;;;5071826;28;20559;-76
2022/05/27 00:47:23;;;;;;;6.33;3.27;;;;;;;;;;5071022;28;20390;-76
2022/05/27 00:49:52;;;;;;;8.53;3.40;;;;;;;;;;5072136;28;20451;-76
2022/05/27 00:52:19;;;;;;;11.23;4.20;;;;;;;;;;5072241;28;20386;-75
2022/05/27 00:54:46;;;;;;;8.23;3.60;;;;;;;;;;5071956;28;20546;-78
2022/05/27 00:57:15;;;;;;;4.77;3.20;;;;;;;;;;5075795;28;20402;-75
2022/05/27 00:59:43;;;;;;;7.50;3.30;;;;;;;;;;5074462;28;20387;-77
2022/05/27 01:02:09;;;;;;;3.70;3.40;;;;;;;;;;5075820;28;20386;-77
2022/05/27 01:04:36;;;;;;;8.10;3.27;;;;;;;;;;5075399;28;20402;-75
2022/05/27 01:07:02;;;;;;;3.37;2.87;;;;;;;;;;5076008;28;20456;-77
2022/05/27 01:09:29;;;;;;;3.50;3.10;;;;;;;;;;5076033;28;20382;-75
2022/05/27 01:12:04;;;;;;;3.90;2.20;;;;;;;;;;5075448;28;20428;-74
2022/05/27 01:14:49;;;;;;;4.97;3.10;;;;;;;;;;5075049;28;20437;-76
2022/05/27 01:17:24;;;;;;;5.60;2.97;;;;;;;;;;5075671;28;20396;-77
2022/05/27 01:20:21;;;;;;;5.07;3.00;;;;;;;;;;5073989;28;20403;-76
2022/05/27 01:22:53;;;;;;;6.10;3.67;;;;;;;;;;5075341;28;20458;-76
2022/05/27 01:25:19;;;;;;;15.63;4.10;;;;;;;;;;5075615;28;20446;-77
2022/05/27 01:27:57;;;;;;;4.60;3.23;;;;;;;;;;5075178;28;20855;-76
2022/05/27 01:30:23;;;;;;;5.43;4.10;;;;;;;;;;5075219;28;20871;-76
2022/05/27 01:33:09;;;;;;;9.30;3.13;;;;;;;;;;5075013;28;20430;-77
2022/05/27 01:35:46;;;;;;;7.07;3.90;;;;;;;;;;5074888;28;20443;-75
2022/05/27 01:38:19;;;;;;;7.93;3.60;;;;;;;;;;5075175;28;20407;-75
2022/05/27 01:40:50;;;;;;;6.50;4.30;;;;;;;;;;5075222;28;20726;-77
2022/05/27 01:43:26;;;;;;;6.57;3.33;;;;;;;;;;5073507;28;20414;-75
2022/05/27 01:45:56;;;;;;;4.80;3.57;;;;;;;;;;5074870;28;20455;-77
2022/05/27 01:48:28;;;;;;;4.17;2.93;;;;;;;;;;5074964;28;20465;-77
2022/05/27 01:51:03;;;;;;;3.67;2.27;;;;;;;;;;5074835;28;20375;-76
2022/05/27 01:53:34;;;;;;;8.10;2.90;;;;;;;;;;5074340;28;20520;-76
2022/05/27 01:56:10;;;;;;;4.77;2.07;;;;;;;;;;5074759;28;20434;-76
2022/05/27 01:58:47;;;;;;;5.57;2.60;;;;;;;;;;5074977;28;20486;-77
2022/05/27 02:01:19;;;;;;;6.83;3.47;;;;;;;;;;5074738;28;20419;-75
2022/05/27 02:03:53;;;;;;;5.43;2.63;;;;;;;;;;5074168;28;20386;-76
2022/05/27 02:06:39;;;;;;;4.30;2.53;;;;;;;;;;5074207;28;20397;-75
2022/05/27 02:09:16;;;;;;;7.00;2.53;;;;;;;;;;5074505;28;20435;-76
2022/05/27 02:11:43;;;;;;;4.53;2.23;;;;;;;;;;5074763;28;20426;-75
2022/05/27 02:14:18;;;;;;;3.30;2.07;;;;;;;;;;5073911;28;20838;-76
2022/05/27 02:16:56;;;;;;;3.53;2.20;;;;;;;;;;5074430;28;20472;-74
2022/05/27 02:19:36;;;;;;;4.43;2.70;;;;;;;;;;5074291;28;20385;-76
2022/05/27 02:22:12;;;;;;;5.00;2.70;;;;;;;;;;5074247;28;20386;-75
2022/05/27 02:24:59;;;;;;;4.60;2.00;;;;;;;;;;5073870;28;20445;-76
2022/05/27 02:27:36;;;;;;;4.77;2.30;;;;;;;;;;5073808;28;20413;-75
2022/05/27 02:30:05;;;;;;;4.27;2.40;;;;;;;;;;5074382;28;20759;-74
2022/05/27 02:32:34;;;;;;;3.70;2.20;;;;;;;;;;5073931;28;20792;-76
2022/05/27 02:35:21;;;;;;;7.53;2.60;;;;;;;;;;5073692;28;20438;-77
2022/05/27 02:37:49;;;;;;;7.27;3.03;;;;;;;;;;5074036;28;20407;-75
2022/05/27 02:40:17;;;;;;;3.90;2.77;;;;;;;;;;5073907;28;20374;-77
2022/05/27 02:42:43;;;;;;;4.30;2.60;;;;;;;;;;5073856;28;20412;-76
2022/05/27 02:45:09;;;;;;;3.97;2.70;;;;;;;;;;5073412;28;20413;-77
2022/05/27 02:47:42;;;;;;;4.57;2.30;;;;;;;;;;5073650;28;20412;-76
2022/05/27 02:50:26;;;;;;;2.63;2.43;;;;;;;;;;5073552;28;20386;-75
2022/05/27 02:53:10;;;;;;;5.30;2.33;;;;;;;;;;5073244;28;20477;-78
2022/05/27 02:55:41;;;;;;;15.80;3.33;;;;;;;;;;5073442;28;20445;-76
2022/05/27 02:58:07;;;;;;;5.87;3.23;;;;;;;;;;5073494;28;20486;-75
2022/05/27 03:00:35;;;;;;;5.60;2.50;;;;;;;;;;5073341;28;20408;-78
2022/05/27 03:03:02;;;;;;;4.93;3.00;;;;;;;;;;5073002;28;20809;-76
2022/05/27 03:05:31;;;;;;;8.77;3.70;;;;;;;;;;5073307;28;20773;-77
2022/05/27 03:08:07;;;;;;;5.90;3.77;;;;;;;;;;5073360;28;20403;-76
2022/05/27 03:10:39;;;;;;;6.60;4.07;;;;;;;;;;5071861;28;20419;-77
2022/05/27 03:13:05;;;;;;;5.70;3.57;;;;;;;;;;5072719;28;20427;-76
2022/05/27 03:15:43;;;;;;;6.37;4.07;;;;;;;;;;5073118;28;20434;-75
2022/05/27 03:18:25;;;;;;;3.57;3.27;;;;;;;;;;5071232;28;20415;-76
2022/05/27 03:20:55;;;;;;;10.33;3.83;;;;;;;;;;5073155;28;20768;-78
2022/05/27 03:23:21;;;;;;;4.10;3.70;;;;;;;;;;5072917;28;20426;-78
2022/05/27 03:25:53;;;;;;;10.63;4.97;;;;;;;;;;5072889;28;20439;-77
2022/05/27 03:28:24;;;;;;;5.10;4.30;;;;;;;;;;5073079;28;20860;-76
2022/05/27 03:30:55;;;;;;;9.17;4.33;;;;;;;;;;5072614;28;20434;-74
2022/05/27 03:33:40;;;;;;;5.97;4.60;;;;;;;;;;5072534;28;20483;-77
2022/05/27 03:36:19;;;;;;;6.90;4.50;;;;;;;;;;5072898;28;20408;-77
2022/05/27 03:38:50;;;;;;;8.03;5.40;;;;;;;;;;5072690;28;20403;-77
2022/05/27 03:41:26;;;;;;;5.30;4.80;;;;;;;;;;5071547;28;20415;-76
2022/05/27 03:43:53;;;;;;;8.97;5.70;;;;;;;;;;5072344;28;20403;-78
2022/05/27 03:46:29;;;;;;;5.93;5.33;;;;;;;;;;5072664;28;20802;-77
2022/05/27 03:48:55;;;;;;;10.13;5.33;;;;;;;;;;5072681;28;20407;-78
2022/05/27 03:51:22;;;;;;;8.60;5.93;;;;;;;;;;5072515;28;20426;-77
2022/05/27 03:54:04;;;;;;;8.03;4.90;;;;;;;;;;5072261;28;20451;-76
2022/05/27 03:56:33;;;;;;;10.70;5.67;;;;;;;;;;5072627;28;20400;-76
2022/05/27 03:59:00;;;;;;;5.73;4.13;;;;;;;;;;5072449;28;20739;-76
2022/05/27 04:01:29;;;;;;;5.73;4.20;;;;;;;;;;5072577;28;21093;-78
2022/05/27 04:03:56;;;;;;;6.77;4.77;;;;;;;;;;5072245;28;20418;-75
2022/05/27 04:06:22;;;;;;;5.97;4.67;;;;;;;;;;5072536;28;20766;-77
2022/05/27 04:08:48;;;;;;;6.97;4.53;;;;;;;;;;5072737;28;20511;-76
2022/05/27 04:11:13;;;;;;;7.30;5.10;;;;;;;;;;5072523;28;20970;-77
2022/05/27 04:13:39;;;;;;;5.57;4.93;;;;;;;;;;5070850;28;20512;-76
2022/05/27 04:16:06;;;;;;;7.73;5.00;;;;;;;;;;5072426;28;20408;-75
2022/05/27 04:18:31;;;;;;;6.87;4.57;;;;;;;;;;5072488;28;20807;-77
2022/05/27 04:20:57;;;;;;;7.80;4.00;;;;;;;;;;5072340;28;20412;-78
2022/05/27 04:23:23;;;;;;;7.50;5.13;;;;;;;;;;5071848;28;20901;-76
2022/05/27 04:25:50;;;;;;;5.63;5.13;;;;;;;;;;5072252;28;20446;-76
2022/05/27 04:28:16;;;;;;;6.37;4.63;;;;;;;;;;5072263;28;20411;-75
2022/05/27 04:30:44;;;;;;;5.43;3.70;;;;;;;;;;5074522;28;20802;-75
2022/05/27 04:33:10;;;;;;;10.43;4.90;;;;;;;;;;5075532;28;20853;-77
2022/05/27 04:35:36;;;;;;;5.03;4.53;;;;;;;;;;5076224;28;20435;-75
2022/05/27 04:38:03;;;;;;;8.13;4.37;;;;;;;;;;5076166;28;20407;-75
2022/05/27 04:40:29;;;;;;;6.63;3.70;;;;;;;;;;5076174;28;20410;-74
2022/05/27 04:42:55;;;;;;;5.63;4.70;;;;;;;;;;5075611;28;20411;-76
2022/05/27 04:45:21;;;;;;;8.77;3.97;;;;;;;;;;5075887;28;20438;-77
2022/05/27 04:47:47;;;;;;;8.70;4.77;;;;;;;;;;5075876;28;20406;-76
2022/05/27 04:50:14;;;;;;;7.30;4.50;;;;;;;;;;5075805;28;20427;-77
2022/05/27 04:52:40;;;;;;;6.53;4.67;;;;;;;;;;5075949;28;20472;-77
2022/05/27 04:55:08;;;;;;;6.20;4.53;;;;;;;;;;5075299;28;20454;-77
2022/05/27 04:57:35;;;;;;;4.73;4.13;;;;;;;;;;5075474;28;20729;-77
2022/05/27 05:00:02;;;;;;;13.83;4.53;;;;;;;;;;5075796;28;20407;-78
2022/05/27 05:02:28;;;;;;;5.40;4.90;;;;;;;;;;5075577;28;20938;-77
2022/05/27 05:04:54;;;;;;;7.40;5.43;;;;;;;;;;5075175;28;20431;-76
2022/05/27 05:07:22;;;;;;;5.70;4.97;;;;;;;;;;5075455;28;20389;-77
2022/05/27 05:09:48;;;;;;;7.90;5.20;;;;;;;;;;5075279;28;20412;-76
2022/05/27 05:12:14;;;;;;;7.10;5.33;;;;;;;;;;5075509;28;20749;-76
2022/05/27 05:14:41;;;;;;;10.37;6.80;;;;;;;;;;5073677;28;20458;-76
2022/05/27 05:17:07;;;;;;;9.97;6.07;;;;;;;;;;5075356;28;20511;-78
2022/05/27 05:19:34;;;;;;;8.57;7.20;;;;;;;;;;5073911;28;20407;-79
2022/05/27 05:22:00;;;;;;;10.10;6.47;;;;;;;;;;5075197;28;20448;-80
2022/05/27 05:24:26;;;;;;;8.50;7.63;;;;;;;;;;5074836;28;20465;-80
2022/05/27 05:26:52;;;;;;;8.87;7.10;;;;;;;;;;5075275;28;20473;-76
2022/05/27 05:29:18;;;;;;;11.20;7.80;;;;;;;;;;5073848;28;20468;-76
2022/05/27 05:31:44;;;;;;;8.97;8.07;;;;;;;;;;5074923;28;20412;-79
2022/05/27 05:34:10;;;;;;;14.60;8.60;;;;;;;;;;5073165;28;20475;-78
2022/05/27 05:36:36;;;;;;;9.97;8.43;;;;;;;;;;5075145;28;20404;-79
2022/05/27 05:39:03;;;;;;;10.33;7.70;;;;;;;;;;5074947;28;20411;-79
2022/05/27 05:41:30;;;;;;;11.30;8.80;;;;;;;;;;5073982;28;20404;-80
2022/05/27 05:43:56;;;;;;;19.83;10.50;;;;;;;;;;5074262;28;20431;-79
2022/05/27 05:46:23;;;;;;;10.60;8.57;;;;;;;;;;5074613;28;20418;-78
2022/05/27 05:48:49;;;;;;;15.23;10.20;;;;;;;;;;5074660;28;20378;-78
2022/05/27 05:51:15;;;;;;;13.10;9.17;;;;;;;;;;5074590;28;20400;-77
2022/05/27 05:53:41;;;;;;;12.30;9.27;;;;;;;;;;5074046;28;20433;-79
2022/05/27 05:56:07;;;;;;;15.93;9.20;;;;;;;;;;5074611;28;20421;-78
2022/05/27 05:58:33;;;;;;;11.30;8.83;;;;;;;;;;5074528;28;20474;-78
2022/05/27 06:00:59;;;;;;;16.20;9.80;;;;;;;;;;5074546;28;20412;-77
2022/05/27 06:03:25;;;;;;;15.73;9.60;;;;;;;;;;5074144;28;20415;-78
2022/05/27 06:05:52;;;;;;;14.57;8.33;;;;;;;;;;5074300;28;20427;-77
2022/05/27 06:08:20;;;;;;;11.97;7.70;;;;;;;;;;5074224;28;20447;-78
2022/05/27 06:10:47;;;;;;;15.37;9.10;;;;;;;;;;5074366;28;20408;-77
2022/05/27 06:13:13;;;;;;;13.80;10.10;;;;;;;;;;5073990;28;20415;-77
2022/05/27 06:15:39;;;;;;;15.70;9.93;;;;;;;;;;5074203;28;20517;-78
2022/05/27 06:18:06;;;;;;;10.70;7.87;;;;;;;;;;5074286;28;20400;-77
2022/05/27 06:20:32;;;;;;;14.77;8.80;;;;;;;;;;5074228;28;20378;-78
2022/05/27 06:23:03;;;;;;;16.77;8.67;;;;;;;;;;5073731;28;20447;-80
2022/05/27 06:25:28;;;;;;;10.47;8.50;;;;;;;;;;5074008;28;20523;-78
2022/05/27 06:34:23;;;;;;;12.80;9.30;;;;;;;;;;5074057;28;20443;-78
2022/05/27 06:36:15;;;;;;;5.50;3.53;;;;;;;;;;5063118;28;20659;-78
2022/05/27 06:38:41;;;;;;;3.23;2.80;;;;;;;;;;5073892;28;20884;-77
2022/05/27 06:41:07;;;;;;;6.87;2.80;;;;;;;;;;5073820;28;20415;-78
2022/05/27 06:43:33;;;;;;;4.70;3.07;;;;;;;;;;5073398;28;20457;-78
2022/05/27 06:46:00;;;;;;;12.33;3.73;;;;;;;;;;5073675;28;20439;-78
2022/05/27 06:48:26;;;;;;;4.97;2.73;;;;;;;;;;5073574;28;20457;-78
2022/05/27 06:50:52;;;;;;;5.80;3.07;;;;;;;;;;5073571;28;20412;-78
2022/05/27 06:53:18;;;;;;;6.77;2.97;;;;;;;;;;5072236;28;20503;-78
2022/05/27 06:55:51;;;;;;;3.80;2.90;;;;;;;;;;5073488;28;20455;-78
2022/05/27 06:58:17;;;;;;;3.77;3.40;;;;;;;;;;5073317;28;20407;-78
2022/05/27 07:00:43;;;;;;;3.20;2.90;;;;;;;;;;5073254;28;20408;-77
2022/05/27 07:03:09;;;;;;;8.83;3.53;;;;;;;;;;5071709;28;20412;-78
2022/05/27 07:05:35;;;;;;;3.53;3.23;;;;;;;;;;5071898;28;20480;-78
2022/05/27 07:08:02;;;;;;;5.27;2.87;;;;;;;;;;5073284;28;20417;-77
2022/05/27 07:10:28;;;;;;;3.30;3.00;;;;;;;;;;5073050;28;20408;-78
2022/05/27 07:12:59;;;;;;;4.40;3.30;;;;;;;;;;5072878;28;20419;-79
2022/05/27 07:15:29;;;;;;;8.23;3.37;;;;;;;;;;5073119;28;20516;-78
2022/05/27 07:17:55;;;;;;;4.40;3.53;;;;;;;;;;5073338;28;20512;-79
2022/05/27 07:20:22;;;;;;;4.13;3.07;;;;;;;;;;5072982;28;20412;-79
2022/05/27 07:22:48;;;;;;;4.93;3.10;;;;;;;;;;5071556;28;20462;-78
2022/05/27 07:25:15;;;;;;;3.53;3.23;;;;;;;;;;5072750;28;20446;-78
2022/05/27 07:27:41;;;;;;;5.20;3.67;;;;;;;;;;5073158;28;20805;-77
2022/05/27 07:30:08;;;;;;;7.10;3.67;;;;;;;;;;5073099;28;20478;-78
2022/05/27 07:32:35;;;;;;;9.90;3.97;;;;;;;;;;5071647;28;20468;-79
2022/05/27 07:35:02;;;;;;;4.70;3.87;;;;;;;;;;5072532;28;20565;-80
2022/05/27 07:37:27;;;;;;;4.30;3.90;;;;;;;;;;5073072;28;20416;-79
2022/05/27 07:39:53;;;;;;;5.23;3.20;;;;;;;;;;5072811;28;20412;-80
2022/05/27 07:42:20;;;;;;;4.97;4.37;;;;;;;;;;5072800;28;20872;-78
2022/05/27 07:44:46;;;;;;;4.43;3.30;;;;;;;;;;5072301;28;20428;-79
2022/05/27 07:47:12;;;;;;;8.47;3.40;;;;;;;;;;5072828;28;20424;-78
2022/05/27 07:49:38;;;;;;;7.40;3.70;;;;;;;;;;5071475;28;20435;-78
2022/05/27 07:52:05;;;;;;;7.63;3.20;;;;;;;;;;5072704;28;20495;-77
2022/05/27 07:54:31;;;;;;;3.00;2.70;;;;;;;;;;5072350;28;20459;-78
2022/05/27 07:56:57;;;;;;;3.47;3.17;;;;;;;;;;5072361;28;20412;-77
2022/05/27 07:59:24;;;;;;;4.13;3.20;;;;;;;;;;5071210;28;20430;-77
2022/05/27 08:01:50;;;;;;;4.70;3.40;;;;;;;;;;5072639;28;20411;-77
2022/05/27 08:04:16;;;;;;;8.60;3.80;;;;;;;;;;5073156;28;20771;-77
2022/05/27 08:06:42;;;;;;;5.80;4.60;;;;;;;;;;5076385;28;20446;-77
2022/05/27 08:09:08;;;;;;;6.63;5.17;;;;;;;;;;5076293;28;20835;-77
2022/05/27 08:11:34;;;;;;;7.67;4.50;;;;;;;;;;5076666;28;20415;-77
2022/05/27 08:14:01;;;;;;;4.90;4.27;;;;;;;;;;5076350;28;20532;-77
2022/05/27 08:16:27;;;;;;;5.00;4.40;;;;;;;;;;5076781;28;20415;-78
2022/05/27 08:18:54;;;;;;;4.37;3.97;;;;;;;;;;5076371;28;20403;-77
2022/05/27 08:21:20;;;;;;;4.60;4.20;;;;;;;;;;5076563;28;20411;-79
2022/05/27 08:23:46;;;;;;;5.33;4.63;;;;;;;;;;5076117;28;20502;-77
2022/05/27 08:26:12;;;;;;;5.30;4.80;;;;;;;;;;5076299;28;20458;-76
2022/05/27 08:28:38;;;;;;;4.63;4.23;;;;;;;;;;5076353;28;20502;-77
2022/05/27 08:31:04;;;;;;;6.03;4.60;;;;;;;;;;5076214;28;20417;-76
2022/05/27 08:38:01;;;;;;;4.57;4.17;;;;;;;;;;5075962;28;20892;-77
2022/05/27 08:39:09;;;;;;;6.37;5.60;;;;;;;;;;5076416;28;20509;-78
2022/05/27 08:41:46;;;;;;;9.13;5.47;;;;;;;;;;5078984;28;20449;-76
2022/05/27 08:44:24;;;;;;;7.30;5.40;;;;;;;;;;5074553;28;20449;-75
2022/05/27 08:47:09;;;;;;;7.90;6.57;;;;;;;;;;5076180;28;20687;-78
2022/05/27 08:49:36;;;;;;;5.80;5.30;;;;;;;;;;5076503;28;20824;-76
2022/05/27 08:52:16;;;;;;;5.93;5.27;;;;;;;;;;5075917;28;20962;-77
2022/05/27 08:54:48;;;;;;;5.70;5.20;;;;;;;;;;5075493;28;20520;-77
2022/05/27 09:00:03;;;;;;;8.00;7.20;;;;;;;;;;5076020;28;20846;-78
2022/05/27 09:02:29;;;;;;;6.57;5.50;;;;;;;;;;5075678;28;20412;-75
2022/05/27 09:05:01;;;;;;;6.47;5.80;;;;;;;;;;5075236;28;20431;-77
2022/05/27 09:07:29;;;;;;;6.80;5.47;;;;;;;;;;5075379;28;20423;-77
2022/05/27 09:09:55;;;;;;;6.10;5.37;;;;;;;;;;5075458;28;20876;-78
2022/05/27 09:12:27;;;;;;;6.90;5.93;;;;;;;;;;5074193;28;20424;-77
2022/05/27 09:14:59;;;;;;;7.67;5.90;;;;;;;;;;5074936;28;20463;-75
2022/05/27 09:17:39;;;;;;;8.60;6.63;;;;;;;;;;5074535;28;20419;-77
2022/05/27 09:20:16;;;;;;;9.60;6.60;;;;;;;;;;5075516;28;20410;-78
2022/05/27 09:22:54;;;;;;;11.83;5.83;;;;;;;;;;5075577;28;20389;-77
2022/05/27 09:25:29;;;;;;;6.47;5.37;;;;;;;;;;5075154;28;20534;-77
2022/05/27 09:28:02;;;;;;;7.27;6.30;;;;;;;;;;5075209;28;20418;-75
2022/05/27 09:30:28;;;;;;;6.97;5.77;;;;;;;;;;5075268;28;20418;-76
2022/05/27 09:32:56;;;;;;;7.70;5.57;;;;;;;;;;5074832;28;20884;-74
2022/05/27 09:35:22;;;;;;;8.70;4.67;;;;;;;;;;5075096;28;20467;-78
2022/05/27 09:37:51;;;;;;;6.00;5.33;;;;;;;;;;5075367;28;20486;-75
2022/05/27 09:40:19;;;;;;;5.90;4.37;;;;;;;;;;5075386;28;20411;-78
2022/05/27 09:42:50;;;;;;;5.47;4.60;;;;;;;;;;5075045;28;20872;-78
2022/05/27 09:45:16;;;;;;;8.20;5.20;;;;;;;;;;5074714;28;20420;-77
2022/05/27 09:47:43;;;;;;;5.70;4.97;;;;;;;;;;5074851;28;20415;-76
2022/05/27 09:50:09;;;;;;;6.87;4.60;;;;;;;;;;5074887;28;20806;-74
2022/05/27 09:52:37;;;;;;;7.87;4.57;;;;;;;;;;5075141;28;20411;-75
2022/05/27 09:55:22;;;;;;;6.77;4.80;;;;;;;;;;5074611;28;20459;-73
2022/05/27 09:57:59;;;;;;;7.83;4.70;;;;;;;;;;5074750;28;20400;-77
2022/05/27 10:00:33;;;;;;;6.00;4.20;;;;;;;;;;5074891;28;20411;-78
2022/05/27 10:02:59;;;;;;;6.50;4.30;;;;;;;;;;5074395;28;20388;-76
2022/05/27 10:05:28;;;;;;;9.63;4.30;;;;;;;;;;5073180;28;20494;-76
2022/05/27 10:07:57;;;;;;;5.03;4.10;;;;;;;;;;5073015;28;20420;-75
2022/05/27 10:10:24;;;;;;;8.50;5.13;;;;;;;;;;5073109;28;20915;-77
2022/05/27 10:12:51;;;;;;;6.93;3.50;;;;;;;;;;5074587;28;20407;-76
2022/05/27 10:15:46;;;;;;;4.23;3.83;;;;;;;;;;5074223;28;20927;-77
2022/05/27 10:18:13;;;;;;;8.40;4.40;;;;;;;;;;5065197;28;20427;-75
2022/05/27 10:20:39;;;;;;;4.03;3.30;;;;;;;;;;5072901;28;20419;-74
2022/05/27 10:23:07;;;;;;;3.30;2.63;;;;;;;;;;5055993;28;20473;-76
2022/05/27 10:25:35;;;;;;;6.40;2.80;;;;;;;;;;5072952;28;20865;-74
2022/05/27 10:28:02;;;;;;;4.90;3.03;;;;;;;;;;5073824;28;20461;-77
2022/05/27 10:30:36;;;;;;;6.80;2.83;;;;;;;;;;5074115;28;20882;-76
2022/05/27 10:33:17;;;;;;;6.43;3.20;;;;;;;;;;5072338;28;20410;-78
2022/05/27 10:35:44;;;;;;;3.23;2.70;;;;;;;;;;5073882;28;20453;-76
2022/05/27 10:38:10;;;;;;;3.67;3.03;;;;;;;;;;5072680;28;20406;-77
2022/05/27 10:40:53;;;;;;;5.53;3.07;;;;;;;;;;5073872;28;20461;-77
2022/05/27 10:43:19;;;;;;;3.70;2.97;;;;;;;;;;5073500;28;20400;-78
2022/05/27 10:45:49;;;;;;;3.87;2.40;;;;;;;;;;5073632;28;20474;-75
2022/05/27 10:48:22;;;;;;;6.23;2.73;;;;;;;;;;5073764;28;20396;-74
2022/05/27 10:51:06;;;;;;;4.80;2.80;;;;;;;;;;5073595;28;20848;-76
2022/05/27 10:53:38;;;;;;;5.80;2.97;;;;;;;;;;5073184;28;20492;-75
2022/05/27 10:56:10;;;;;;;4.87;2.77;;;;;;;;;;5073579;28;20418;-76
2022/05/27 11:04:27;;;;;;;4.20;2.33;;;;;;;;;;5073014;28;20431;-78
2022/05/27 11:06:59;;;;;;;2.37;1.97;;;;;;;;;;5073447;28;20494;-78
2022/05/27 11:09:28;;;;;;;3.80;2.03;;;;;;;;;;5073116;28;20412;-76
2022/05/27 11:11:59;;;;;;;3.93;2.27;;;;;;;;;;5073239;28;20415;-76
2022/05/27 11:18:00;;;;;;;2.37;2.07;;;;;;;;;;5073182;28;20422;-76
2022/05/27 11:20:39;;;;;;;3.37;2.27;;;;;;;;;;5072859;28;20425;-77
2022/05/27 11:23:05;;;;;;;4.60;1.67;;;;;;;;;;5072727;28;20514;-77
2022/05/27 11:25:38;;;;;;;2.50;2.13;;;;;;;;;;5073097;28;20434;-77
2022/05/27 11:28:34;;;;;;;2.53;1.70;;;;;;;;;;5073380;28;20505;-77
2022/05/27 11:31:21;;;;;;;3.57;1.87;;;;;;;;;;5072975;28;20403;-75
2022/05/27 11:34:07;;;;;;;5.20;2.27;;;;;;;;;;5072616;28;20859;-77
2022/05/27 11:36:33;;;;;;;4.63;2.10;;;;;;;;;;5073112;28;20416;-77
2022/05/27 11:39:03;;;;;;;5.17;2.53;;;;;;;;;;5074417;28;20408;-77
2022/05/27 11:41:33;;;;;;;2.20;1.80;;;;;;;;;;5072813;28;20461;-76
2022/05/27 11:43:59;;;;;;;4.67;2.00;;;;;;;;;;5072698;28;20495;-78
2022/05/27 11:46:24;;;;;;;4.10;2.03;;;;;;;;;;5072859;28;20869;-77
2022/05/27 11:49:09;;;;;;;3.27;1.80;;;;;;;;;;5073015;28;20914;-76
2022/05/27 11:51:38;;;;;;;2.70;1.60;;;;;;;;;;5072805;28;20395;-76
2022/05/27 11:54:24;;;;;;;4.40;1.90;;;;;;;;;;5072232;28;20454;-78
2022/05/27 11:56:56;;;;;;;2.00;1.60;;;;;;;;;;5072732;28;20407;-76
2022/05/27 11:59:41;;;;;;;3.60;2.20;;;;;;;;;;5072601;28;20747;-76
2022/05/27 12:02:33;;;;;;;5.90;2.37;;;;;;;;;;5072730;28;20407;-76
2022/05/27 12:05:03;;;;;;;3.70;2.20;;;;;;;;;;5056204;28;20443;-76
2022/05/27 12:07:32;;;;;;;7.87;2.40;;;;;;;;;;5072457;28;20403;-77
2022/05/27 12:10:01;;;;;;;5.73;1.97;;;;;;;;;;5072345;28;20412;-75
2022/05/27 12:12:31;;;;;;;5.83;2.33;;;;;;;;;;5072470;28;20495;-77
2022/05/27 12:15:02;;;;;;;7.30;3.10;;;;;;;;;;5071863;28;20466;-75
2022/05/27 12:17:45;;;;;;;4.67;2.23;;;;;;;;;;5072456;28;20491;-75
2022/05/27 12:20:14;;;;;;;4.97;2.40;;;;;;;;;;5072473;28;20439;-77
2022/05/27 12:22:40;;;;;;;2.73;2.07;;;;;;;;;;5072394;28;20512;-75
2022/05/27 12:25:09;;;;;;;2.90;2.23;;;;;;;;;;5071768;28;20511;-76
2022/05/27 12:27:35;;;;;;;4.13;1.90;;;;;;;;;;5072130;28;20417;-75
2022/05/27 12:30:02;;;;;;;3.90;2.30;;;;;;;;;;5072339;28;20415;-75
2022/05/27 12:32:29;;;;;;;5.87;2.10;;;;;;;;;;5072131;28;20431;-75
2022/05/27 12:35:13;;;;;;;4.03;2.40;;;;;;;;;;5071687;28;20958;-75
2022/05/27 12:38:03;;;;;;;2.03;1.60;;;;;;;;;;5070962;28;20782;-75
2022/05/27 12:40:29;;;;;;;5.17;1.50;;;;;;;;;;5066799;28;20936;-77
2022/05/27 12:42:56;;;;;;;9.47;2.30;;;;;;;;;;5071805;28;20411;-76
2022/05/27 12:45:43;;;;;;;7.83;2.30;;;;;;;;;;5072193;28;20449;-74
2022/05/27 12:48:09;;;;;;;4.10;1.90;;;;;;;;;;5064923;28;20416;-76
2022/05/27 12:50:37;;;;;;;3.20;1.73;;;;;;;;;;5073856;28;20433;-75
2022/05/27 12:53:21;;;;;;;3.57;1.80;;;;;;;;;;5075669;28;20396;-78
2022/05/27 13:01:39;;;;;;;3.80;2.30;;;;;;;;;;5075786;28;20368;-75
2022/05/27 13:04:05;;;;;;;5.80;1.83;;;;;;;;;;5075381;28;20831;-76
2022/05/27 13:06:31;;;;;;;7.07;2.13;;;;;;;;;;5075776;28;20426;-75
2022/05/27 13:08:59;;;;;;;5.63;2.13;;;;;;;;;;5074135;28;20856;-74
2022/05/27 13:11:26;;;;;;;4.53;1.80;;;;;;;;;;5075532;28;20822;-76
2022/05/27 13:13:53;;;;;;;8.87;1.87;;;;;;;;;;5075160;28;20462;-74
2022/05/27 13:16:24;;;;;;;2.80;1.50;;;;;;;;;;5075276;28;20411;-75
2022/05/27 13:18:59;;;;;;;6.03;2.00;;;;;;;;;;5075600;28;20831;-76
2022/05/27 13:21:28;;;;;;;3.77;1.77;;;;;;;;;;5075957;28;20407;-78
2022/05/27 13:23:59;;;;;;;4.10;1.63;;;;;;;;;;5075499;28;20416;-75
2022/05/27 13:26:34;;;;;;;3.40;1.50;;;;;;;;;;5075957;28;20403;-77
2022/05/27 13:29:00;;;;;;;2.57;1.50;;;;;;;;;;5074589;28;20418;-77
2022/05/27 13:31:39;;;;;;;2.67;1.70;;;;;;;;;;5075535;28;21101;-75
2022/05/27 13:34:09;;;;;;;3.53;1.60;;;;;;;;;;5073879;28;20475;-77
2022/05/27 13:36:38;;;;;;;3.77;1.70;;;;;;;;;;5075337;28;20911;-75
2022/05/27 13:39:06;;;;;;;4.07;1.77;;;;;;;;;;5073643;28;20408;-77
2022/05/27 13:41:41;;;;;;;3.57;1.80;;;;;;;;;;5074929;28;20408;-75
2022/05/27 13:44:10;;;;;;;4.93;1.50;;;;;;;;;;5074953;28;20484;-75
2022/05/27 13:46:39;;;;;;;5.53;2.10;;;;;;;;;;5075000;28;20505;-76
2022/05/27 13:49:11;;;;;;;2.80;1.63;;;;;;;;;;5073621;28;20408;-75
2022/05/27 13:51:41;;;;;;;5.20;1.43;;;;;;;;;;5074980;28;20430;-76
2022/05/27 13:54:18;;;;;;;2.43;1.20;;;;;;;;;;5074457;28;20463;-75
2022/05/27 13:57:05;;;;;;;6.00;2.30;;;;;;;;;;5074757;28;20469;-76
2022/05/27 13:59:42;;;;;;;5.03;1.77;;;;;;;;;;5074629;28;20407;-77
2022/05/27 14:02:16;;;;;;;2.83;1.87;;;;;;;;;;5072775;28;20511;-75
2022/05/27 14:04:46;;;;;;;3.40;1.40;;;;;;;;;;5074481;28;20439;-74
2022/05/27 14:07:18;;;;;;;2.70;1.57;;;;;;;;;;5074723;28;20450;-77
2022/05/27 14:09:46;;;;;;;1.93;1.10;;;;;;;;;;5074581;28;20419;-75
2022/05/27 14:12:12;;;;;;;4.30;2.00;;;;;;;;;;5073246;28;20757;-74
2022/05/27 14:14:43;;;;;;;4.20;1.60;;;;;;;;;;5074090;28;20851;-75
2022/05/27 14:17:13;;;;;;;4.27;2.13;;;;;;;;;;5074743;28;20709;-74
2022/05/27 14:19:39;;;;;;;2.60;1.60;;;;;;;;;;5073437;28;20391;-76
2022/05/27 14:22:42;;;;;;;4.30;2.20;;;;;;;;;;5074614;28;20470;-74
2022/05/27 14:25:10;;;;;;;6.00;2.20;;;;;;;;;;5073381;28;20433;-76
2022/05/27 14:27:42;;;;;;;9.13;2.43;;;;;;;;;;5074437;28;20422;-76
2022/05/27 14:30:08;;;;;;;10.93;2.40;;;;;;;;;;5074333;28;20415;-76
2022/05/27 14:32:35;;;;;;;2.43;1.60;;;;;;;;;;5074157;28;20518;-76
2022/05/27 14:35:03;;;;;;;2.33;1.80;;;;;;;;;;5072401;28;20495;-75
2022/05/27 14:37:34;;;;;;;7.50;3.07;;;;;;;;;;5073962;28;20457;-76
2022/05/27 14:40:02;;;;;;;4.17;2.17;;;;;;;;;;5073822;28;20470;-75
2022/05/27 14:42:28;;;;;;;5.80;2.30;;;;;;;;;;5073987;28;20414;-76
2022/05/27 14:44:54;;;;;;;5.47;2.57;;;;;;;;;;5073429;28;20427;-75
2022/05/27 14:47:32;;;;;;;5.93;2.60;;;;;;;;;;5073745;28;20499;-76
2022/05/27 14:49:58;;;;;;;6.13;1.83;;;;;;;;;;5073778;28;20431;-75
2022/05/27 14:52:24;;;;;;;3.97;1.80;;;;;;;;;;5073646;28;20808;-76
2022/05/27 14:54:52;;;;;;;8.10;2.40;;;;;;;;;;5073474;28;20442;-74
2022/05/27 14:57:22;;;;;;;6.60;2.30;;;;;;;;;;5073735;28;20752;-75
2022/05/27 14:59:54;;;;;;;2.97;1.77;;;;;;;;;;5073650;28;20730;-75
2022/05/27 15:02:25;;;;;;;4.43;2.20;;;;;;;;;;5073534;28;20884;-74
2022/05/27 15:04:55;;;;;;;4.20;1.90;;;;;;;;;;5073011;28;20427;-75
2022/05/27 15:07:23;;;;;;;6.10;2.07;;;;;;;;;;5073319;28;20780;-74
2022/05/27 15:09:59;;;;;;;8.30;3.07;;;;;;;;;;5073256;28;20412;-76
2022/05/27 15:12:30;;;;;;;5.50;2.80;;;;;;;;;;5072683;28;20899;-76
2022/05/27 15:14:56;;;;;;;10.80;2.90;;;;;;;;;;5071572;28;20547;-77
2022/05/27 15:17:22;;;;;;;4.50;2.03;;;;;;;;;;5073044;28;20537;-76
2022/05/27 15:19:49;;;;;;;7.03;2.40;;;;;;;;;;5073065;28;20375;-76
2022/05/27 15:22:18;;;;;;;8.37;2.17;;;;;;;;;;5072707;28;20429;-77
2022/05/27 15:24:47;;;;;;;7.13;2.10;;;;;;;;;;5072667;28;20840;-76